createdAt,value
2023-05-14T00:00:28.772Z,15.11
2023-05-14T00:03:19.422Z,15.12
2023-05-14T00:05:51.020Z,15.10
2023-05-14T00:08:21.580Z,15.09
2023-05-14T00:10:52.224Z,15.07
2023-05-14T00:13:22.728Z,15.06
2023-05-14T00:15:53.362Z,15.06
2023-05-14T00:18:24.098Z,15.05
2023-05-14T00:20:55.322Z,15.02
2023-05-14T00:23:25.950Z,15.02
2023-05-14T00:25:56.599Z,15.01
2023-05-14T00:28:27.174Z,14.96
2023-05-14T00:30:58.081Z,14.95
2023-05-14T00:33:28.713Z,14.94
2023-05-14T00:35:59.232Z,14.95
2023-05-14T00:38:30.492Z,14.93
2023-05-14T00:41:01.216Z,14.91
2023-05-14T00:43:33.333Z,14.90
2023-05-14T00:46:04.045Z,14.89
2023-05-14T00:48:35.541Z,14.87
2023-05-14T00:51:06.610Z,14.86
2023-05-14T00:53:37.574Z,14.85
2023-05-14T00:56:08.386Z,14.83
2023-05-14T00:58:39.035Z,14.80
2023-05-14T01:01:10.177Z,14.77
2023-05-14T01:03:40.915Z,14.75
2023-05-14T01:06:16.669Z,14.72
2023-05-14T01:08:52.277Z,14.69
2023-05-14T01:11:26.132Z,14.66
2023-05-14T01:13:59.533Z,14.65
2023-05-14T01:16:32.242Z,14.65
2023-05-14T01:19:03.947Z,14.63
2023-05-14T01:21:44.310Z,14.60
2023-05-14T01:24:14.867Z,14.53
2023-05-14T01:26:45.505Z,14.52
2023-05-14T01:29:18.226Z,14.51
2023-05-14T01:31:50.064Z,14.50
2023-05-14T01:34:22.346Z,14.47
2023-05-14T01:36:54.652Z,14.48
2023-05-14T01:39:26.439Z,14.47
2023-05-14T01:41:57.612Z,14.45
2023-05-14T01:44:28.348Z,14.44
2023-05-14T01:46:58.895Z,14.42
2023-05-14T01:49:29.544Z,14.41
2023-05-14T01:52:00.185Z,14.41
2023-05-14T01:54:30.797Z,14.40
2023-05-14T01:57:01.560Z,14.39
2023-05-14T01:59:32.265Z,14.40
2023-05-14T02:02:02.834Z,14.41
2023-05-14T02:04:33.409Z,14.39
2023-05-14T02:07:04.043Z,14.39
2023-05-14T02:09:34.761Z,14.39
2023-05-14T02:12:05.501Z,14.38
2023-05-14T02:14:36.549Z,14.38
2023-05-14T02:17:07.207Z,14.37
2023-05-14T02:19:37.876Z,14.35
2023-05-14T02:22:08.453Z,14.34
2023-05-14T02:24:39.115Z,14.32
2023-05-14T02:27:09.770Z,14.31
2023-05-14T02:29:40.691Z,14.30
2023-05-14T02:32:11.339Z,14.29
2023-05-14T02:34:41.931Z,14.29
2023-05-14T02:37:12.588Z,14.29
2023-05-14T02:39:43.119Z,14.29
2023-05-14T02:42:13.592Z,14.28
2023-05-14T02:44:44.317Z,14.28
2023-05-14T02:47:14.809Z,14.28
2023-05-14T02:49:45.492Z,14.27
2023-05-14T02:52:16.106Z,14.23
2023-05-14T02:54:46.698Z,14.20
2023-05-14T02:57:17.188Z,14.19
2023-05-14T02:59:47.769Z,14.18
2023-05-14T03:02:18.757Z,14.20
2023-05-14T03:04:50.593Z,14.22
2023-05-14T03:07:21.093Z,14.18
2023-05-14T03:09:51.695Z,14.16
2023-05-14T03:12:22.254Z,14.15
2023-05-14T03:14:52.812Z,14.13
2023-05-14T03:17:23.403Z,14.12
2023-05-14T03:19:54.220Z,14.12
2023-05-14T03:22:24.759Z,14.12
2023-05-14T03:24:55.358Z,14.12
2023-05-14T03:27:25.827Z,14.13
2023-05-14T03:29:56.425Z,14.13
2023-05-14T03:32:27.424Z,14.13
2023-05-14T03:34:57.999Z,14.14
2023-05-14T03:37:28.501Z,14.15
2023-05-14T03:39:59.934Z,14.18
2023-05-14T03:42:30.563Z,14.20
2023-05-14T03:45:01.159Z,14.21
2023-05-14T03:47:31.717Z,14.23
2023-05-14T03:50:04.362Z,14.25
2023-05-14T03:52:35.023Z,14.28
2023-05-14T03:55:07.206Z,14.29
2023-05-14T03:57:37.924Z,14.32
2023-05-14T04:00:09.964Z,14.34
2023-05-14T04:02:47.326Z,14.35
2023-05-14T04:05:18.066Z,14.36
2023-05-14T04:07:49.325Z,14.37
2023-05-14T04:10:19.900Z,14.39
2023-05-14T04:12:50.455Z,14.42
2023-05-14T04:15:21.685Z,14.44
2023-05-14T04:17:52.295Z,14.47
2023-05-14T04:20:23.142Z,14.50
2023-05-14T04:22:54.092Z,14.51
2023-05-14T04:25:24.994Z,14.55
2023-05-14T04:27:55.582Z,14.59
2023-05-14T04:30:26.499Z,14.62
2023-05-14T04:32:57.128Z,14.65
2023-05-14T04:35:27.832Z,14.69
2023-05-14T04:37:58.368Z,14.70
2023-05-14T04:40:29.129Z,14.73
2023-05-14T04:42:59.716Z,14.75
2023-05-14T04:45:32.189Z,14.80
2023-05-14T04:48:04.120Z,14.85
2023-05-14T04:50:35.254Z,14.90
2023-05-14T04:53:05.893Z,14.94
2023-05-14T04:55:36.477Z,15.00
2023-05-14T04:58:07.090Z,15.07
2023-05-14T05:00:37.630Z,15.14
2023-05-14T05:03:08.871Z,15.23
2023-05-14T05:05:39.508Z,15.33
2023-05-14T05:08:11.639Z,15.42
2023-05-14T05:10:42.298Z,15.54
2023-05-14T05:13:12.804Z,15.68
2023-05-14T05:15:43.492Z,15.81
2023-05-14T05:18:14.051Z,15.95
2023-05-14T05:20:44.642Z,16.07
2023-05-14T05:23:15.194Z,16.22
2023-05-14T05:25:45.841Z,16.36
2023-05-14T05:28:16.533Z,16.51
2023-05-14T05:30:47.156Z,16.67
2023-05-14T05:33:17.818Z,16.82
2023-05-14T05:35:50.195Z,16.96
2023-05-14T05:38:20.863Z,17.09
2023-05-14T05:40:51.573Z,17.24
2023-05-14T05:43:22.390Z,17.39
2023-05-14T05:45:52.861Z,17.52
2023-05-14T05:48:23.457Z,17.66
2023-05-14T05:50:54.073Z,17.78
2023-05-14T05:53:24.575Z,17.90
2023-05-14T05:55:55.149Z,18.02
2023-05-14T05:58:26.350Z,18.15
2023-05-14T06:00:57.769Z,18.28
2023-05-14T06:03:28.474Z,18.40
2023-05-14T06:05:59.029Z,18.51
2023-05-14T06:08:29.568Z,18.62
2023-05-14T06:11:00.143Z,18.74
2023-05-14T06:13:30.581Z,18.87
2023-05-14T06:16:01.258Z,18.98
2023-05-14T06:18:32.002Z,19.07
2023-05-14T06:21:02.521Z,19.18
2023-05-14T06:23:33.094Z,19.27
2023-05-14T06:26:03.712Z,19.36
2023-05-14T06:28:34.294Z,19.48
2023-05-14T06:31:04.880Z,19.58
2023-05-14T06:33:35.514Z,19.69
2023-05-14T06:36:07.032Z,19.82
2023-05-14T06:38:37.577Z,19.96
2023-05-14T06:41:08.190Z,20.09
2023-05-14T06:43:38.769Z,20.22
2023-05-14T06:46:09.312Z,20.33
2023-05-14T06:48:39.940Z,20.47
2023-05-14T06:51:11.047Z,20.60
2023-05-14T06:53:41.834Z,20.74
2023-05-14T06:56:13.062Z,20.87
2023-05-14T06:58:43.611Z,21.02
2023-05-14T07:01:14.307Z,21.16
2023-05-14T07:03:44.863Z,21.28
2023-05-14T07:06:15.466Z,21.39
2023-05-14T07:08:46.882Z,21.51
2023-05-14T07:11:17.469Z,21.62
2023-05-14T07:13:48.031Z,21.75
2023-05-14T07:19:30.217Z,22.02
2023-05-14T07:22:01.335Z,22.12
2023-05-14T07:24:31.857Z,22.21
2023-05-14T07:27:02.657Z,22.23
2023-05-14T07:29:35.129Z,22.26
2023-05-14T07:32:05.908Z,22.32
2023-05-14T07:34:36.435Z,22.38
2023-05-14T07:37:07.192Z,22.39
2023-05-14T07:39:37.751Z,22.40
2023-05-14T07:42:09.260Z,22.41
2023-05-14T07:44:40.024Z,22.47
2023-05-14T07:47:10.822Z,22.56
2023-05-14T07:49:41.442Z,22.63
2023-05-14T07:52:11.992Z,22.70
2023-05-14T07:54:42.538Z,22.78
2023-05-14T07:57:13.050Z,22.83
2023-05-14T07:59:43.845Z,22.87
2023-05-14T08:02:16.147Z,22.90
2023-05-14T08:04:47.011Z,22.99
2023-05-14T08:07:17.486Z,23.10
2023-05-14T08:09:48.219Z,23.15
2023-05-14T08:12:18.758Z,23.24
2023-05-14T08:14:49.398Z,23.34
2023-05-14T08:17:19.904Z,23.41
2023-05-14T08:19:50.743Z,23.51
2023-05-14T08:22:21.850Z,23.58
2023-05-14T08:24:52.483Z,23.63
2023-05-14T08:27:23.296Z,23.68
2023-05-14T08:29:54.117Z,23.68
2023-05-14T08:32:24.685Z,23.74
2023-05-14T08:34:55.265Z,23.75
2023-05-14T08:37:25.892Z,23.74
2023-05-14T08:39:56.590Z,23.76
2023-05-14T08:42:27.871Z,23.83
2023-05-14T08:45:02.131Z,23.87
2023-05-14T08:47:33.014Z,23.93
2023-05-14T08:50:05.100Z,23.97
2023-05-14T08:52:36.107Z,23.99
2023-05-14T08:55:08.048Z,24.04
2023-05-14T08:57:38.678Z,24.05
2023-05-14T09:00:12.435Z,24.08
2023-05-14T09:02:43.535Z,24.12
2023-05-14T09:05:14.572Z,24.25
2023-05-14T09:07:45.183Z,24.35
2023-05-14T09:10:16.126Z,24.40
2023-05-14T09:12:46.694Z,24.47
2023-05-14T09:15:17.243Z,24.54
2023-05-14T09:17:48.711Z,24.54
2023-05-14T09:20:19.833Z,24.55
2023-05-14T09:22:53.601Z,24.55
2023-05-14T09:25:27.632Z,24.57
2023-05-14T09:27:59.050Z,24.56
2023-05-14T09:30:30.162Z,24.60
2023-05-14T09:33:00.757Z,24.70
2023-05-14T09:35:32.629Z,24.81
2023-05-14T09:38:03.306Z,24.88
2023-05-14T09:40:33.902Z,24.87
2023-05-14T09:43:04.440Z,24.83
2023-05-14T09:45:36.069Z,24.83
2023-05-14T09:48:07.179Z,24.78
2023-05-14T09:50:42.799Z,24.79
2023-05-14T09:53:13.494Z,24.85
2023-05-14T09:55:44.371Z,24.89
2023-05-14T09:58:15.628Z,24.92
2023-05-14T10:00:47.868Z,24.95
2023-05-14T10:03:20.170Z,24.98
2023-05-14T10:05:51.672Z,24.99
2023-05-14T10:08:25.430Z,25.02
2023-05-14T10:10:56.488Z,25.12
2023-05-14T10:13:30.228Z,25.24
2023-05-14T10:16:07.633Z,25.25
2023-05-14T10:18:41.367Z,25.25
2023-05-14T10:21:12.901Z,25.21
2023-05-14T10:23:43.876Z,25.17
2023-05-14T10:26:14.994Z,25.15
2023-05-14T10:28:45.961Z,25.20
2023-05-14T10:31:17.510Z,25.14
2023-05-14T10:33:52.326Z,25.08
2023-05-14T10:36:23.515Z,25.06
2023-05-14T10:38:58.103Z,25.07
2023-05-14T10:41:28.770Z,25.04
2023-05-14T10:44:00.930Z,24.96
2023-05-14T10:46:31.699Z,24.77
2023-05-14T10:49:02.317Z,24.64
2023-05-14T10:51:33.581Z,24.57
2023-05-14T10:54:04.634Z,24.53
2023-05-14T10:56:35.464Z,24.60
2023-05-14T10:59:07.782Z,24.77
2023-05-14T11:01:41.436Z,24.94
2023-05-14T11:04:19.269Z,24.92
2023-05-14T11:06:50.474Z,24.78
2023-05-14T11:09:22.693Z,24.58
2023-05-14T11:11:54.635Z,24.45
2023-05-14T11:14:25.437Z,24.49
2023-05-14T11:16:56.659Z,24.57
2023-05-14T11:19:27.271Z,24.54
2023-05-14T11:21:57.899Z,24.53
2023-05-14T11:24:28.411Z,24.62
2023-05-14T11:26:59.064Z,24.72
2023-05-14T11:29:29.685Z,24.70
2023-05-14T11:32:00.438Z,24.56
2023-05-14T11:34:31.418Z,24.39
2023-05-14T11:37:03.637Z,24.29
2023-05-14T11:39:34.288Z,24.34
2023-05-14T11:42:05.506Z,24.42
2023-05-14T11:44:36.135Z,24.37
2023-05-14T11:47:07.145Z,24.22
2023-05-14T11:49:38.122Z,24.04
2023-05-14T11:52:10.342Z,23.89
2023-05-14T11:54:41.138Z,23.73
2023-05-14T11:57:12.845Z,23.62
2023-05-14T11:59:43.494Z,23.52
2023-05-14T12:02:15.291Z,23.45
2023-05-14T12:04:46.282Z,23.42
2023-05-14T12:07:17.672Z,23.38
2023-05-14T12:09:49.878Z,23.34
2023-05-14T12:12:21.837Z,23.31
2023-05-14T12:14:52.742Z,23.28
2023-05-14T12:17:23.893Z,23.37
2023-05-14T12:19:56.465Z,23.47
2023-05-14T12:22:26.993Z,23.50
2023-05-14T12:24:59.143Z,23.53
2023-05-14T12:27:31.250Z,23.55
2023-05-14T12:30:19.049Z,23.58
2023-05-14T12:32:53.018Z,23.61
2023-05-14T12:35:24.108Z,23.70
2023-05-14T12:37:55.036Z,23.81
2023-05-14T12:40:25.940Z,23.94
2023-05-14T12:42:57.054Z,24.07
2023-05-14T12:45:27.824Z,24.19
2023-05-14T12:47:58.517Z,24.33
2023-05-14T12:50:29.253Z,24.46
2023-05-14T12:52:59.868Z,24.55
2023-05-14T12:55:30.531Z,24.64
2023-05-14T12:58:01.129Z,24.66
2023-05-14T13:00:31.736Z,24.65
2023-05-14T13:03:02.398Z,24.58
2023-05-14T13:05:33.429Z,24.47
2023-05-14T13:08:04.111Z,24.35
2023-05-14T13:10:34.774Z,24.29
2023-05-14T13:13:05.591Z,24.26
2023-05-14T13:15:36.658Z,24.23
2023-05-14T13:18:07.499Z,24.22
2023-05-14T13:20:38.125Z,24.19
2023-05-14T13:23:08.740Z,24.22
2023-05-14T13:25:39.446Z,24.18
2023-05-14T13:28:10.069Z,24.11
2023-05-14T13:30:40.665Z,24.02
2023-05-14T13:33:11.284Z,23.91
2023-05-14T13:35:41.960Z,23.87
2023-05-14T13:38:12.561Z,23.83
2023-05-14T13:40:43.153Z,23.77
2023-05-14T13:43:14.951Z,23.70
2023-05-14T13:45:45.847Z,23.63
2023-05-14T13:48:16.537Z,23.55
2023-05-14T13:50:47.252Z,23.45
2023-05-14T13:53:17.850Z,23.36
2023-05-14T13:55:49.292Z,23.27
2023-05-14T13:58:20.233Z,23.26
2023-05-14T14:00:51.012Z,23.27
2023-05-14T14:03:21.631Z,23.30
2023-05-14T14:05:52.274Z,23.32
2023-05-14T14:08:24.290Z,23.34
2023-05-14T14:10:55.820Z,23.32
2023-05-14T14:13:26.565Z,23.33
2023-05-14T14:15:57.267Z,23.36
2023-05-14T14:18:27.877Z,23.35
2023-05-14T14:20:58.559Z,23.32
2023-05-14T14:23:29.163Z,23.29
2023-05-14T14:26:00.108Z,23.29
2023-05-14T14:28:30.818Z,23.35
2023-05-14T14:31:01.396Z,23.41
2023-05-14T14:33:31.978Z,23.47
2023-05-14T14:36:02.660Z,23.51
2023-05-14T14:38:33.265Z,23.54
2023-05-14T14:41:04.070Z,23.58
2023-05-14T14:43:34.738Z,23.56
2023-05-14T14:46:05.457Z,23.54
2023-05-14T14:48:37.874Z,23.49
2023-05-14T14:51:09.162Z,23.48
2023-05-14T14:53:40.504Z,23.48
2023-05-14T14:56:11.616Z,23.47
2023-05-14T14:58:42.497Z,23.47
2023-05-14T15:01:13.163Z,23.45
2023-05-14T15:03:45.639Z,23.44
2023-05-14T15:06:16.283Z,23.44
2023-05-14T15:08:46.902Z,23.44
2023-05-14T15:11:17.497Z,23.42
2023-05-14T15:13:48.103Z,23.40
2023-05-14T15:16:18.950Z,23.39
2023-05-14T15:18:49.545Z,23.36
2023-05-14T15:21:20.164Z,23.32
2023-05-14T15:23:50.930Z,23.25
2023-05-14T15:26:21.816Z,23.20
2023-05-14T15:28:52.324Z,23.14
2023-05-14T15:31:23.104Z,23.09
2023-05-14T15:33:56.081Z,23.04
2023-05-14T15:36:26.676Z,22.98
2023-05-14T15:38:57.291Z,22.94
2023-05-14T15:41:28.875Z,22.88
2023-05-14T15:43:59.502Z,22.83
2023-05-14T15:46:30.472Z,22.77
2023-05-14T15:49:01.131Z,22.71
2023-05-14T15:51:31.904Z,22.66
2023-05-14T15:54:02.550Z,22.63
2023-05-14T15:56:33.207Z,22.60
2023-05-14T15:59:03.853Z,22.56
2023-05-14T16:01:34.433Z,22.51
2023-05-14T16:04:05.197Z,22.47
2023-05-14T16:06:36.374Z,22.43
2023-05-14T16:09:06.975Z,22.39
2023-05-14T16:11:37.586Z,22.35
2023-05-14T16:14:08.363Z,22.32
2023-05-14T16:16:39.427Z,22.29
2023-05-14T16:19:10.167Z,22.26
2023-05-14T16:21:40.860Z,22.24
2023-05-14T16:24:12.712Z,22.21
2023-05-14T16:26:43.353Z,22.20
2023-05-14T16:29:13.908Z,22.17
2023-05-14T16:31:44.510Z,22.15
2023-05-14T16:34:15.137Z,22.12
2023-05-14T16:36:45.730Z,22.09
2023-05-14T16:39:16.664Z,22.07
2023-05-14T16:41:47.302Z,22.04
2023-05-14T16:44:17.851Z,22.01
2023-05-14T16:46:48.641Z,21.99
2023-05-14T16:49:22.502Z,21.97
2023-05-14T16:51:53.217Z,21.95
2023-05-14T16:54:23.889Z,21.92
2023-05-14T16:56:54.367Z,21.90
2023-05-14T16:59:25.288Z,21.88
2023-05-14T17:01:56.134Z,21.85
2023-05-14T17:04:26.893Z,21.83
2023-05-14T17:06:58.355Z,21.80
2023-05-14T17:09:29.086Z,21.76
2023-05-14T17:11:59.649Z,21.72
2023-05-14T17:14:30.300Z,21.67
2023-05-14T17:17:00.891Z,21.64
2023-05-14T17:19:31.518Z,21.61
2023-05-14T17:22:02.090Z,21.58
2023-05-14T17:24:32.798Z,21.56
2023-05-14T17:27:03.354Z,21.53
2023-05-14T17:29:33.985Z,21.49
2023-05-14T17:32:05.033Z,21.45
2023-05-14T17:34:35.844Z,21.41
2023-05-14T17:37:06.891Z,21.37
2023-05-14T17:39:37.533Z,21.33
2023-05-14T17:42:09.220Z,21.30
2023-05-14T17:44:39.758Z,21.27
2023-05-14T17:47:10.300Z,21.23
2023-05-14T17:49:40.916Z,21.20
2023-05-14T17:52:11.395Z,21.16
2023-05-14T17:54:41.978Z,21.12
2023-05-14T17:57:12.596Z,21.08
2023-05-14T17:59:43.262Z,21.04
2023-05-14T18:02:13.832Z,20.99
2023-05-14T18:04:44.552Z,20.95
2023-05-14T18:07:15.081Z,20.90
2023-05-14T18:09:45.674Z,20.86
2023-05-14T18:12:16.311Z,20.81
2023-05-14T18:14:47.016Z,20.77
2023-05-14T18:17:17.638Z,20.73
2023-05-14T18:19:48.390Z,20.68
2023-05-14T18:22:20.450Z,20.62
2023-05-14T18:24:50.992Z,20.56
2023-05-14T18:27:21.556Z,20.50
2023-05-14T18:29:53.378Z,20.45
2023-05-14T18:32:23.984Z,20.39
2023-05-14T18:34:54.509Z,20.32
2023-05-14T18:37:25.103Z,20.26
2023-05-14T18:39:55.700Z,20.20
2023-05-14T18:42:26.578Z,20.15
2023-05-14T18:44:57.260Z,20.10
2023-05-14T18:47:28.070Z,20.03
2023-05-14T18:50:00.579Z,19.96
2023-05-14T18:52:32.407Z,19.90
2023-05-14T18:55:03.202Z,19.85
2023-05-14T18:57:34.111Z,19.79
2023-05-14T19:00:05.348Z,19.72
2023-05-14T19:02:36.112Z,19.66
2023-05-14T19:05:07.663Z,19.61
2023-05-14T19:07:39.256Z,19.56
2023-05-14T19:10:10.767Z,19.51
2023-05-14T19:12:41.339Z,19.46
2023-05-14T19:15:13.824Z,19.42
2023-05-14T19:17:44.835Z,19.39
2023-05-14T19:20:15.510Z,19.35
2023-05-14T19:22:46.102Z,19.31
2023-05-14T19:25:16.792Z,19.29
2023-05-14T19:27:51.074Z,19.26
2023-05-14T19:30:22.892Z,19.24
2023-05-14T19:32:53.378Z,19.23
2023-05-14T19:35:24.314Z,19.21
2023-05-14T19:37:55.072Z,19.20
2023-05-14T19:40:26.328Z,19.17
2023-05-14T19:42:56.856Z,19.12
2023-05-14T19:45:27.509Z,19.07
2023-05-14T19:47:58.454Z,19.03
2023-05-14T19:50:29.001Z,18.99
2023-05-14T19:52:59.613Z,18.95
2023-05-14T19:55:30.191Z,18.91
2023-05-14T19:58:00.717Z,18.88
2023-05-14T20:00:31.698Z,18.83
2023-05-14T20:03:02.478Z,18.77
2023-05-14T20:05:34.445Z,18.71
2023-05-14T20:08:07.669Z,18.66
2023-05-14T20:10:38.279Z,18.61
2023-05-14T20:13:09.294Z,18.56
2023-05-14T20:15:40.067Z,18.52
2023-05-14T20:18:10.823Z,18.49
2023-05-14T20:20:42.852Z,18.44
2023-05-14T20:23:13.464Z,18.40
2023-05-14T20:25:44.390Z,18.37
2023-05-14T20:28:14.986Z,18.33
2023-05-14T20:30:45.843Z,18.31
2023-05-14T20:33:16.546Z,18.28
2023-05-14T20:35:47.331Z,18.25
2023-05-14T20:38:18.527Z,18.24
2023-05-14T20:40:49.204Z,18.19
2023-05-14T20:43:19.956Z,18.17
2023-05-14T20:45:50.619Z,18.14
2023-05-14T20:48:22.153Z,18.13
2023-05-14T20:50:52.729Z,18.11
2023-05-14T20:53:23.444Z,18.10
2023-05-14T20:55:54.060Z,18.08
2023-05-14T20:58:25.447Z,18.06
2023-05-14T21:00:56.531Z,18.04
2023-05-14T21:03:28.263Z,18.04
2023-05-14T21:06:00.721Z,18.03
2023-05-14T21:08:32.975Z,18.02
2023-05-14T21:11:03.559Z,18.00
2023-05-14T21:13:34.136Z,17.98
2023-05-14T21:16:06.715Z,17.98
2023-05-14T21:18:37.378Z,17.96
2023-05-14T21:21:08.151Z,17.94
2023-05-14T21:23:38.924Z,17.91
2023-05-14T21:26:11.576Z,17.88
2023-05-14T21:28:42.196Z,17.86
2023-05-14T21:31:12.869Z,17.84
2023-05-14T21:33:43.937Z,17.81
2023-05-14T21:36:14.597Z,17.79
2023-05-14T21:38:45.214Z,17.76
2023-05-14T21:41:16.565Z,17.75
2023-05-14T21:43:47.422Z,17.74
2023-05-14T21:46:18.020Z,17.72
2023-05-14T21:48:48.703Z,17.70
2023-05-14T21:51:20.043Z,17.66
2023-05-14T21:53:50.796Z,17.64
2023-05-14T21:56:22.658Z,17.63
2023-05-14T21:58:55.606Z,17.61
2023-05-14T22:01:26.132Z,17.60
2023-05-14T22:03:57.970Z,17.59
2023-05-14T22:06:28.751Z,17.57
2023-05-14T22:08:59.307Z,17.54
2023-05-14T22:11:29.912Z,17.52
2023-05-14T22:14:01.178Z,17.49
2023-05-14T22:16:31.990Z,17.46
2023-05-14T22:19:03.994Z,17.45
2023-05-14T22:21:35.987Z,17.44
2023-05-14T22:24:07.656Z,17.43
2023-05-14T22:26:38.353Z,17.44
2023-05-14T22:29:08.990Z,17.45
2023-05-14T22:31:39.592Z,17.43
2023-05-14T22:34:10.652Z,17.42
2023-05-14T22:36:41.245Z,17.41
2023-05-14T22:39:13.462Z,17.38
2023-05-14T22:41:44.829Z,17.35
2023-05-14T22:44:15.491Z,17.32
2023-05-14T22:46:46.069Z,17.30
2023-05-14T22:49:16.824Z,17.29
2023-05-14T22:51:47.499Z,17.29
2023-05-14T22:54:18.417Z,17.28
2023-05-14T22:56:49.174Z,17.29
2023-05-14T22:59:21.466Z,17.26
2023-05-14T23:01:53.582Z,17.25
2023-05-14T23:04:24.233Z,17.23
2023-05-14T23:06:54.953Z,17.22
2023-05-14T23:09:25.741Z,17.20
2023-05-14T23:11:56.461Z,17.18
2023-05-14T23:14:27.107Z,17.15
2023-05-14T23:16:57.702Z,17.11
2023-05-14T23:19:28.379Z,17.09
2023-05-14T23:21:59.670Z,17.06
2023-05-14T23:24:30.176Z,17.03
2023-05-14T23:27:00.825Z,17.03
2023-05-14T23:29:31.422Z,17.02
2023-05-14T23:32:02.168Z,17.01
2023-05-14T23:34:32.758Z,16.99
2023-05-14T23:37:03.610Z,16.96
2023-05-14T23:39:34.275Z,16.93
2023-05-14T23:42:04.913Z,16.90
2023-05-14T23:44:35.476Z,16.88
2023-05-14T23:47:07.457Z,16.87
2023-05-14T23:49:39.490Z,16.87
2023-05-14T23:52:10.074Z,16.84
2023-05-14T23:54:40.624Z,16.82
2023-05-14T23:57:13.015Z,16.82
2023-05-14T23:59:44.991Z,16.82
